createdAt,value
2022-12-03T00:00:49.055Z,26.07
2022-12-03T00:02:52.094Z,24.07
2022-12-03T00:04:55.094Z,24.00
2022-12-03T00:06:58.182Z,23.53
2022-12-03T00:09:02.678Z,23.40
2022-12-03T00:11:05.785Z,23.37
2022-12-03T00:13:08.810Z,20.60
2022-12-03T00:15:12.601Z,22.20
2022-12-03T00:17:15.496Z,20.47
2022-12-03T00:19:18.182Z,20.77
2022-12-03T00:21:20.949Z,21.70
2022-12-03T00:23:23.725Z,21.53
2022-12-03T00:25:27.861Z,22.57
2022-12-03T00:27:30.679Z,19.73
2022-12-03T00:29:33.462Z,18.43
2022-12-03T00:31:36.262Z,17.93
2022-12-03T00:33:39.344Z,20.93
2022-12-03T00:35:42.416Z,19.60
2022-12-03T00:37:45.134Z,18.90
2022-12-03T00:39:48.172Z,19.27
2022-12-03T00:41:52.197Z,19.00
2022-12-03T00:43:57.482Z,19.07
2022-12-03T00:46:00.298Z,18.30
2022-12-03T00:48:03.183Z,19.03
2022-12-03T00:50:08.077Z,19.53
2022-12-03T00:52:10.786Z,18.83
2022-12-03T00:54:13.477Z,16.93
2022-12-03T00:56:16.440Z,18.13
2022-12-03T00:58:20.705Z,17.00
2022-12-03T01:00:25.343Z,22.97
2022-12-03T01:02:28.065Z,16.90
2022-12-03T01:04:31.054Z,17.57
2022-12-03T01:06:33.918Z,18.20
2022-12-03T01:08:36.806Z,16.70
2022-12-03T01:10:40.105Z,16.90
2022-12-03T01:12:42.840Z,15.90
2022-12-03T01:14:47.003Z,15.23
2022-12-03T01:16:50.032Z,18.77
2022-12-03T01:18:53.164Z,14.80
2022-12-03T01:20:55.945Z,14.47
2022-12-03T01:22:58.639Z,16.73
2022-12-03T01:25:01.415Z,14.77
2022-12-03T01:27:04.118Z,14.97
2022-12-03T01:29:07.613Z,15.77
2022-12-03T01:31:29.521Z,12.73
2022-12-03T01:33:32.479Z,14.70
2022-12-03T01:35:35.161Z,14.27
2022-12-03T01:37:37.842Z,14.17
2022-12-03T01:39:40.646Z,13.97
2022-12-03T01:41:44.205Z,13.93
2022-12-03T01:43:47.789Z,13.87
2022-12-03T01:45:50.735Z,12.40
2022-12-03T01:47:54.873Z,14.40
2022-12-03T01:50:02.650Z,14.53
2022-12-03T01:52:05.782Z,13.93
2022-12-03T01:54:15.339Z,13.67
2022-12-03T01:56:19.291Z,13.83
2022-12-03T01:58:27.020Z,15.97
2022-12-03T02:00:30.678Z,14.07
2022-12-03T02:02:33.970Z,15.30
2022-12-03T02:04:38.194Z,14.70
2022-12-03T02:06:41.393Z,13.67
2022-12-03T02:08:45.094Z,16.00
2022-12-03T02:10:47.813Z,13.20
2022-12-03T02:12:55.727Z,13.20
2022-12-03T02:14:59.724Z,16.77
2022-12-03T02:17:02.582Z,12.70
2022-12-03T02:19:07.399Z,13.13
2022-12-03T02:21:19.950Z,13.50
2022-12-03T02:23:33.056Z,14.93
2022-12-03T02:25:38.113Z,13.67
2022-12-03T02:27:41.213Z,12.50
2022-12-03T02:29:44.140Z,13.13
2022-12-03T02:31:47.315Z,12.83
2022-12-03T02:33:50.577Z,13.27
2022-12-03T02:35:53.453Z,12.63
2022-12-03T02:38:00.092Z,12.67
2022-12-03T02:40:07.897Z,12.10
2022-12-03T02:42:30.159Z,11.27
2022-12-03T02:44:33.167Z,11.47
2022-12-03T02:46:36.664Z,12.73
2022-12-03T02:48:41.999Z,12.00
2022-12-03T02:50:48.502Z,12.07
2022-12-03T02:52:54.607Z,14.17
2022-12-03T02:54:57.571Z,13.27
2022-12-03T02:57:00.596Z,15.27
2022-12-03T02:59:06.680Z,14.13
2022-12-03T03:01:11.205Z,13.87
2022-12-03T03:03:14.385Z,12.77
2022-12-03T03:05:19.414Z,13.57
2022-12-03T03:07:22.870Z,15.77
2022-12-03T03:09:26.046Z,13.30
2022-12-03T03:11:28.840Z,13.33
2022-12-03T03:13:33.520Z,14.10
2022-12-03T03:15:38.867Z,12.67
2022-12-03T03:17:43.167Z,13.93
2022-12-03T03:19:46.135Z,12.63
2022-12-03T03:21:49.166Z,14.40
2022-12-03T03:23:51.821Z,13.10
2022-12-03T03:25:59.898Z,13.20
2022-12-03T03:28:02.997Z,14.77
2022-12-03T03:30:07.850Z,13.27
2022-12-03T03:32:11.970Z,13.27
2022-12-03T03:34:15.982Z,14.03
2022-12-03T03:36:19.826Z,13.67
2022-12-03T03:38:24.298Z,14.67
2022-12-03T03:40:27.701Z,12.03
2022-12-03T03:42:30.469Z,15.03
2022-12-03T03:44:34.114Z,13.20
2022-12-03T03:46:38.371Z,16.20
2022-12-03T03:48:43.909Z,13.17
2022-12-03T03:50:47.392Z,13.90
2022-12-03T03:52:50.234Z,13.53
2022-12-03T03:54:53.329Z,13.80
2022-12-03T03:56:56.292Z,14.67
2022-12-03T03:58:59.138Z,14.40
2022-12-03T04:01:02.118Z,16.73
2022-12-03T04:03:05.426Z,14.13
2022-12-03T04:05:16.144Z,14.93
2022-12-03T04:07:19.118Z,14.83
2022-12-03T04:09:21.833Z,14.27
2022-12-03T04:11:42.522Z,14.57
2022-12-03T04:13:45.216Z,13.50
2022-12-03T04:15:47.924Z,14.00
2022-12-03T04:18:11.505Z,14.87
2022-12-03T04:20:15.790Z,14.33
2022-12-03T04:22:35.979Z,14.40
2022-12-03T04:24:38.709Z,14.30
2022-12-03T04:26:58.962Z,14.07
2022-12-03T04:29:00.897Z,15.40
2022-12-03T04:31:24.579Z,12.87
2022-12-03T04:33:44.830Z,16.17
2022-12-03T04:35:48.065Z,16.07
2022-12-03T04:37:50.982Z,13.57
2022-12-03T04:39:53.706Z,14.87
2022-12-03T04:41:55.635Z,12.03
2022-12-03T04:44:30.417Z,14.97
2022-12-03T04:46:33.313Z,14.10
2022-12-03T04:48:35.991Z,15.00
2022-12-03T04:50:38.819Z,13.20
2022-12-03T04:52:42.906Z,13.53
2022-12-03T04:54:45.934Z,13.57
2022-12-03T04:56:48.759Z,13.93
2022-12-03T04:58:51.468Z,14.67
2022-12-03T05:00:54.188Z,13.40
2022-12-03T05:02:57.025Z,12.83
2022-12-03T05:04:59.827Z,14.57
2022-12-03T05:07:02.700Z,13.90
2022-12-03T05:09:06.806Z,14.93
2022-12-03T05:11:09.502Z,13.77
2022-12-03T05:13:12.331Z,14.97
2022-12-03T05:15:15.053Z,13.27
2022-12-03T05:17:17.733Z,15.70
2022-12-03T05:19:20.427Z,14.17
2022-12-03T05:21:22.367Z,15.07
2022-12-03T05:23:25.751Z,15.37
2022-12-03T05:25:29.774Z,12.77
2022-12-03T05:27:32.486Z,15.57
2022-12-03T05:29:35.174Z,13.37
2022-12-03T05:31:37.854Z,14.27
2022-12-03T05:33:44.259Z,15.30
2022-12-03T05:35:47.434Z,15.17
2022-12-03T05:38:05.247Z,13.37
2022-12-03T05:40:09.413Z,15.77
2022-12-03T05:42:30.987Z,15.10
2022-12-03T05:44:33.755Z,15.57
2022-12-03T05:46:36.568Z,14.70
2022-12-03T05:48:39.389Z,14.53
2022-12-03T05:50:44.212Z,15.57
2022-12-03T05:52:47.044Z,15.80
2022-12-03T05:54:49.810Z,16.53
2022-12-03T05:56:52.530Z,13.60
2022-12-03T05:58:56.924Z,15.87
2022-12-03T06:00:59.658Z,17.07
2022-12-03T06:03:02.823Z,15.40
2022-12-03T06:05:06.802Z,14.43
2022-12-03T06:07:13.718Z,15.50
2022-12-03T06:09:17.143Z,16.67
2022-12-03T06:11:19.956Z,16.33
2022-12-03T06:13:22.922Z,18.03
2022-12-03T06:15:26.947Z,16.33
2022-12-03T06:17:29.884Z,15.47
2022-12-03T06:19:32.862Z,15.77
2022-12-03T06:21:35.648Z,17.23
2022-12-03T06:23:44.344Z,16.03
2022-12-03T06:25:47.071Z,20.47
2022-12-03T06:27:49.766Z,18.30
2022-12-03T06:29:52.839Z,19.10
2022-12-03T06:31:56.915Z,17.03
2022-12-03T06:33:59.653Z,18.13
2022-12-03T06:36:02.360Z,18.77
2022-12-03T06:38:05.147Z,18.90
2022-12-03T06:40:09.156Z,18.23
2022-12-03T06:42:11.858Z,17.97
2022-12-03T06:44:14.683Z,20.63
2022-12-03T06:46:17.483Z,18.93
2022-12-03T06:48:21.582Z,19.93
2022-12-03T06:50:24.270Z,20.57
2022-12-03T06:52:26.966Z,17.10
2022-12-03T06:54:29.700Z,18.93
2022-12-03T06:56:37.796Z,21.43
2022-12-03T06:58:40.908Z,21.63
2022-12-03T07:00:43.643Z,18.43
2022-12-03T07:02:46.730Z,22.60
2022-12-03T07:04:51.481Z,19.13
2022-12-03T07:06:54.465Z,20.33
2022-12-03T07:08:57.438Z,21.93
2022-12-03T07:11:00.175Z,20.83
2022-12-03T07:13:02.957Z,22.93
2022-12-03T07:15:06.941Z,22.27
2022-12-03T07:17:09.639Z,20.27
2022-12-03T07:19:12.884Z,20.33
2022-12-03T07:21:17.159Z,52.33
2022-12-03T07:23:20.173Z,22.90
2022-12-03T07:25:23.830Z,21.93
2022-12-03T07:27:26.735Z,22.37
2022-12-03T07:29:30.634Z,49.13
2022-12-03T07:31:33.637Z,29.33
2022-12-03T07:33:36.483Z,122.50
2022-12-03T07:35:39.194Z,53.87
2022-12-03T07:37:43.222Z,35.73
2022-12-03T07:39:45.911Z,33.53
2022-12-03T07:41:48.586Z,25.57
2022-12-03T07:43:51.318Z,31.10
2022-12-03T07:45:54.011Z,23.80
2022-12-03T07:47:56.787Z,23.47
2022-12-03T07:49:59.549Z,128.87
2022-12-03T07:52:02.332Z,45.90
2022-12-03T07:54:07.133Z,32.33
2022-12-03T07:56:10.131Z,27.17
2022-12-03T07:58:13.054Z,70.77
2022-12-03T08:00:17.157Z,26.63
2022-12-03T08:02:21.863Z,29.87
2022-12-03T08:04:25.021Z,29.93
2022-12-03T08:06:27.721Z,33.60
2022-12-03T08:08:30.778Z,46.33
2022-12-03T08:10:34.859Z,115.63
2022-12-03T08:12:42.715Z,40.70
2022-12-03T08:14:45.665Z,68.80
2022-12-03T08:16:49.239Z,39.13
2022-12-03T08:18:55.134Z,41.17
2022-12-03T08:20:58.089Z,109.13
2022-12-03T08:23:01.030Z,32.23
2022-12-03T08:25:06.847Z,29.80
2022-12-03T08:27:17.838Z,28.40
2022-12-03T08:29:21.333Z,27.40
2022-12-03T08:31:32.404Z,28.23
2022-12-03T08:33:37.354Z,26.27
2022-12-03T08:35:43.882Z,29.53
2022-12-03T08:37:46.766Z,25.53
2022-12-03T08:39:51.770Z,29.17
2022-12-03T08:42:15.065Z,29.23
2022-12-03T08:44:27.779Z,36.93
2022-12-03T08:46:31.525Z,29.97
2022-12-03T08:48:36.752Z,31.43
2022-12-03T08:50:41.382Z,30.83
2022-12-03T08:52:44.395Z,28.63
2022-12-03T08:54:52.683Z,28.67
2022-12-03T08:56:56.064Z,35.10
2022-12-03T08:59:00.385Z,32.50
2022-12-03T09:01:29.510Z,33.00
2022-12-03T09:03:33.657Z,36.47
2022-12-03T09:05:37.288Z,34.77
2022-12-03T09:07:40.185Z,36.60
2022-12-03T09:09:43.097Z,43.07
2022-12-03T09:11:46.349Z,41.10
2022-12-03T09:13:49.223Z,33.47
2022-12-03T09:15:51.910Z,35.00
2022-12-03T09:17:56.048Z,33.80
2022-12-03T09:19:58.726Z,41.13
2022-12-03T09:22:01.624Z,36.03
2022-12-03T09:24:04.559Z,31.23
2022-12-03T09:26:07.355Z,34.97
2022-12-03T09:28:10.172Z,32.27
2022-12-03T09:30:13.465Z,29.17
2022-12-03T09:32:18.599Z,31.03
2022-12-03T09:34:23.010Z,30.47
2022-12-03T09:36:25.724Z,31.70
2022-12-03T09:38:28.442Z,35.33
2022-12-03T09:40:31.239Z,30.67
2022-12-03T09:42:34.302Z,35.60
2022-12-03T09:44:37.927Z,32.07
2022-12-03T09:46:42.117Z,34.13
2022-12-03T09:48:44.927Z,33.03
2022-12-03T09:50:49.770Z,32.10
2022-12-03T09:52:55.416Z,33.17
2022-12-03T09:55:01.842Z,33.23
2022-12-03T09:57:05.648Z,32.97
2022-12-03T09:59:14.551Z,34.77
2022-12-03T10:01:18.786Z,33.23
2022-12-03T10:03:29.880Z,34.37
2022-12-03T10:05:33.651Z,33.57
2022-12-03T10:07:38.609Z,34.13
2022-12-03T10:09:41.735Z,33.87
2022-12-03T10:11:44.530Z,36.73
2022-12-03T10:13:48.755Z,33.30
2022-12-03T10:15:52.526Z,36.37
2022-12-03T10:17:56.869Z,37.23
2022-12-03T10:19:59.611Z,30.10
2022-12-03T10:22:02.363Z,30.53
2022-12-03T10:24:28.522Z,33.00
2022-12-03T10:26:40.333Z,33.27
2022-12-03T10:28:46.718Z,40.73
2022-12-03T10:30:55.226Z,34.57
2022-12-03T10:33:02.487Z,31.10
2022-12-03T10:35:11.037Z,31.73
2022-12-03T10:37:16.897Z,31.87
2022-12-03T10:39:20.198Z,30.17
2022-12-03T10:41:26.620Z,31.33
2022-12-03T10:43:29.395Z,32.07
2022-12-03T10:45:32.206Z,35.93
2022-12-03T10:47:35.343Z,34.00
2022-12-03T10:49:38.401Z,35.53
2022-12-03T10:51:41.468Z,34.10
2022-12-03T10:53:44.377Z,32.67
2022-12-03T10:55:48.696Z,30.93
2022-12-03T10:57:53.660Z,31.50
2022-12-03T10:59:56.415Z,33.37
2022-12-03T11:01:59.300Z,37.47
2022-12-03T11:04:05.733Z,32.00
2022-12-03T11:06:15.959Z,33.33
2022-12-03T11:08:21.046Z,32.43
2022-12-03T11:10:24.448Z,30.60
2022-12-03T11:12:28.876Z,34.57
2022-12-03T11:15:06.342Z,34.60
2022-12-03T11:17:09.738Z,34.43
2022-12-03T11:19:17.265Z,34.33
2022-12-03T11:21:20.089Z,32.13
2022-12-03T11:23:56.387Z,31.97
2022-12-03T11:25:59.201Z,33.10
2022-12-03T11:28:37.099Z,31.63
2022-12-03T11:31:01.219Z,31.70
2022-12-03T11:33:04.103Z,31.87
2022-12-03T11:35:13.188Z,33.13
2022-12-03T11:37:26.099Z,35.37
2022-12-03T11:40:02.324Z,33.50
2022-12-03T11:42:30.295Z,35.13
2022-12-03T11:44:33.640Z,32.63
2022-12-03T11:46:43.968Z,31.87
2022-12-03T11:48:47.822Z,31.20
2022-12-03T11:50:53.200Z,31.10
2022-12-03T11:52:59.595Z,33.83
2022-12-03T11:55:05.287Z,33.70
2022-12-03T11:57:27.063Z,32.53
2022-12-03T11:59:29.780Z,27.63
2022-12-03T12:01:38.751Z,32.40
2022-12-03T12:03:47.262Z,32.83
2022-12-03T12:06:01.955Z,30.07
2022-12-03T12:08:05.120Z,33.10
2022-12-03T12:10:08.530Z,34.00
2022-12-03T12:12:30.022Z,29.50
2022-12-03T12:14:32.721Z,30.43
2022-12-03T12:16:51.729Z,31.87
2022-12-03T12:18:56.391Z,32.93
2022-12-03T12:21:33.002Z,34.30
2022-12-03T12:23:36.071Z,32.07
2022-12-03T12:25:41.567Z,31.13
2022-12-03T12:27:45.456Z,38.23
2022-12-03T12:29:53.744Z,38.27
2022-12-03T12:32:03.537Z,31.77
2022-12-03T12:34:13.314Z,30.57
2022-12-03T12:36:19.030Z,30.30
2022-12-03T12:38:24.114Z,31.97
2022-12-03T12:40:28.899Z,30.83
2022-12-03T12:42:34.896Z,29.87
2022-12-03T12:44:37.643Z,32.10
2022-12-03T12:46:47.796Z,30.30
2022-12-03T12:48:53.348Z,31.50
2022-12-03T12:51:07.481Z,29.60
2022-12-03T12:53:13.917Z,32.17
2022-12-03T12:55:17.311Z,31.67
2022-12-03T12:57:23.386Z,31.93
2022-12-03T12:59:26.977Z,32.80
2022-12-03T13:01:32.363Z,33.00
2022-12-03T13:03:38.817Z,33.97
2022-12-03T13:05:43.813Z,29.63
2022-12-03T13:07:48.746Z,30.70
2022-12-03T13:09:55.830Z,31.00
2022-12-03T13:12:00.337Z,29.73
2022-12-03T13:14:06.832Z,32.37
2022-12-03T13:16:14.197Z,30.70
2022-12-03T13:18:29.254Z,30.87
2022-12-03T13:20:32.110Z,32.10
2022-12-03T13:22:34.863Z,33.50
2022-12-03T13:24:41.814Z,32.00
2022-12-03T13:26:44.708Z,30.67
2022-12-03T13:28:47.455Z,31.07
2022-12-03T13:30:50.231Z,30.20
2022-12-03T13:32:53.023Z,31.20
2022-12-03T13:35:01.818Z,30.00
2022-12-03T13:37:14.554Z,30.83
2022-12-03T13:39:22.380Z,29.53
2022-12-03T13:41:44.232Z,30.53
2022-12-03T13:43:47.097Z,32.17
2022-12-03T13:45:51.872Z,33.40
2022-12-03T13:47:58.601Z,30.93
2022-12-03T13:50:04.085Z,32.87
2022-12-03T13:52:12.694Z,36.13
2022-12-03T13:54:20.237Z,29.17
2022-12-03T13:56:29.654Z,29.97
2022-12-03T13:58:32.635Z,32.13
2022-12-03T14:00:35.569Z,31.97
2022-12-03T14:02:38.885Z,32.03
2022-12-03T14:04:42.333Z,32.63
2022-12-03T14:06:46.417Z,32.00
2022-12-03T14:08:49.871Z,29.50
2022-12-03T14:10:58.733Z,29.80
2022-12-03T14:13:05.396Z,33.03
2022-12-03T14:15:10.609Z,31.90
2022-12-03T14:17:13.621Z,29.00
2022-12-03T14:19:16.507Z,31.70
2022-12-03T14:21:19.253Z,28.73
2022-12-03T14:23:22.058Z,32.80
2022-12-03T14:25:24.748Z,31.10
2022-12-03T14:27:27.528Z,30.80
2022-12-03T14:29:31.603Z,30.03
2022-12-03T14:31:34.365Z,29.17
2022-12-03T14:33:37.172Z,32.10
2022-12-03T14:35:39.867Z,29.30
2022-12-03T14:37:42.842Z,32.20
2022-12-03T14:39:45.587Z,30.77
2022-12-03T14:42:04.969Z,33.47
2022-12-03T14:44:07.855Z,31.30
2022-12-03T14:46:12.145Z,30.77
2022-12-03T14:48:18.042Z,33.13
2022-12-03T14:50:20.780Z,30.73
2022-12-03T14:52:23.958Z,32.67
2022-12-03T14:54:28.089Z,31.53
2022-12-03T14:56:31.127Z,33.43
2022-12-03T14:58:34.798Z,32.73
2022-12-03T15:00:37.754Z,37.53
2022-12-03T15:02:42.169Z,33.67
2022-12-03T15:04:44.914Z,36.13
2022-12-03T15:06:47.720Z,32.50
2022-12-03T15:08:50.402Z,32.50
2022-12-03T15:10:53.281Z,32.37
2022-12-03T15:12:55.970Z,32.10
2022-12-03T15:14:59.184Z,32.30
2022-12-03T15:17:02.003Z,60.73
2022-12-03T15:19:06.154Z,51.30
2022-12-03T15:21:09.024Z,34.60
2022-12-03T15:23:14.463Z,45.53
2022-12-03T15:25:24.022Z,36.50
2022-12-03T15:27:26.943Z,39.83
2022-12-03T15:29:30.191Z,41.43
2022-12-03T15:31:33.002Z,44.63
2022-12-03T15:33:36.062Z,38.33
2022-12-03T15:35:42.434Z,34.57
2022-12-03T15:37:45.301Z,35.90
2022-12-03T15:39:48.995Z,32.10
2022-12-03T15:41:51.960Z,34.77
2022-12-03T15:43:54.635Z,39.50
2022-12-03T15:45:57.404Z,35.23
2022-12-03T15:48:00.829Z,41.50
2022-12-03T15:50:03.772Z,41.57
2022-12-03T15:52:07.908Z,40.90
2022-12-03T15:54:12.060Z,32.83
2022-12-03T15:56:15.075Z,37.47
2022-12-03T15:58:17.843Z,37.40
2022-12-03T16:00:23.817Z,37.17
2022-12-03T16:02:33.377Z,36.17
2022-12-03T16:04:39.199Z,36.73
2022-12-03T16:06:42.287Z,35.47
2022-12-03T16:08:46.461Z,33.63
2022-12-03T16:10:49.337Z,34.87
2022-12-03T16:12:52.046Z,35.23
2022-12-03T16:14:54.801Z,36.03
2022-12-03T16:16:58.917Z,56.93
2022-12-03T16:19:01.638Z,39.03
2022-12-03T16:21:04.471Z,36.47
2022-12-03T16:23:08.039Z,41.57
2022-12-03T16:25:12.310Z,40.93
2022-12-03T16:27:15.319Z,38.07
2022-12-03T16:29:18.212Z,36.63
2022-12-03T16:31:21.528Z,39.40
2022-12-03T16:33:27.891Z,40.20
2022-12-03T16:35:31.022Z,40.10
2022-12-03T16:37:33.737Z,40.83
2022-12-03T16:39:36.907Z,36.47
2022-12-03T16:41:41.050Z,32.80
2022-12-03T16:43:46.103Z,35.63
2022-12-03T16:46:20.403Z,35.73
2022-12-03T16:48:23.497Z,47.00
2022-12-03T16:50:29.906Z,45.77
2022-12-03T16:52:33.342Z,41.43
2022-12-03T16:54:36.287Z,37.63
2022-12-03T16:56:39.003Z,39.30
2022-12-03T16:58:43.164Z,39.17
2022-12-03T17:00:45.923Z,38.60
2022-12-03T17:02:48.803Z,37.83
2022-12-03T17:04:51.718Z,34.13
2022-12-03T17:06:54.953Z,33.33
2022-12-03T17:08:57.735Z,36.43
2022-12-03T17:11:00.553Z,36.37
2022-12-03T17:13:10.923Z,35.83
2022-12-03T17:15:15.372Z,35.37
2022-12-03T17:17:18.421Z,32.50
2022-12-03T17:19:21.251Z,35.27
2022-12-03T17:21:24.039Z,33.80
2022-12-03T17:23:26.818Z,36.43
2022-12-03T17:25:29.860Z,39.13
2022-12-03T17:27:32.738Z,33.93
2022-12-03T17:29:35.805Z,34.90
2022-12-03T17:31:42.286Z,34.63
2022-12-03T17:33:45.604Z,32.23
2022-12-03T17:35:48.342Z,38.57
2022-12-03T17:37:51.059Z,47.30
2022-12-03T17:39:54.342Z,37.57
2022-12-03T17:41:57.513Z,38.93
2022-12-03T17:44:01.867Z,35.70
2022-12-03T17:46:07.244Z,36.37
2022-12-03T17:48:11.451Z,37.00
2022-12-03T17:50:14.492Z,31.30
2022-12-03T17:52:17.479Z,36.03
2022-12-03T17:54:20.423Z,37.07
2022-12-03T17:56:23.396Z,36.53
2022-12-03T17:58:26.658Z,36.57
2022-12-03T18:00:29.390Z,35.10
2022-12-03T18:02:32.339Z,34.60
2022-12-03T18:04:36.522Z,34.60
2022-12-03T18:06:39.821Z,33.10
2022-12-03T18:08:43.160Z,34.20
2022-12-03T18:10:45.983Z,34.87
2022-12-03T18:12:49.095Z,39.67
2022-12-03T18:14:51.796Z,39.83
2022-12-03T18:16:54.552Z,36.27
2022-12-03T18:19:03.192Z,35.10
2022-12-03T18:21:10.101Z,34.70
2022-12-03T18:23:13.577Z,32.63
2022-12-03T18:25:17.910Z,34.13
2022-12-03T18:27:21.409Z,31.87
2022-12-03T18:29:25.511Z,36.80
2022-12-03T18:31:28.831Z,32.03
2022-12-03T18:33:31.773Z,34.53
2022-12-03T18:35:34.628Z,32.47
2022-12-03T18:37:38.779Z,32.90
2022-12-03T18:39:43.995Z,32.00
2022-12-03T18:41:46.786Z,39.57
2022-12-03T18:43:49.939Z,35.67
2022-12-03T18:45:52.722Z,33.10
2022-12-03T18:47:55.597Z,36.37
2022-12-03T18:49:58.810Z,34.57
2022-12-03T18:52:01.831Z,33.37
2022-12-03T18:54:12.593Z,32.20
2022-12-03T18:56:16.264Z,35.53
2022-12-03T18:58:19.211Z,41.93
2022-12-03T19:00:22.206Z,33.30
2022-12-03T19:04:48.086Z,33.10
2022-12-03T19:06:51.045Z,39.93
2022-12-03T19:08:54.355Z,37.27
2022-12-03T19:11:00.258Z,41.23
2022-12-03T19:13:03.756Z,35.20
2022-12-03T19:15:09.916Z,43.00
2022-12-03T19:17:12.778Z,41.80
2022-12-03T19:19:15.918Z,39.50
2022-12-03T19:21:18.813Z,35.17
2022-12-03T19:23:24.000Z,36.03
2022-12-03T19:25:27.157Z,34.50
2022-12-03T19:27:32.702Z,33.23
2022-12-03T19:29:35.601Z,38.77
2022-12-03T19:31:38.568Z,42.80
2022-12-03T19:33:42.513Z,34.13
2022-12-03T19:35:45.231Z,31.30
2022-12-03T19:37:48.711Z,30.40
2022-12-03T19:39:54.068Z,31.03
2022-12-03T19:41:57.487Z,31.97
2022-12-03T19:44:06.321Z,29.13
2022-12-03T19:46:13.313Z,33.13
2022-12-03T19:48:16.046Z,30.03
2022-12-03T19:50:22.893Z,36.00
2022-12-03T19:52:26.343Z,30.53
2022-12-03T19:54:29.112Z,34.77
2022-12-03T19:56:32.263Z,32.93
2022-12-03T19:58:36.336Z,36.00
2022-12-03T20:00:40.731Z,36.90
2022-12-03T20:02:43.722Z,33.53
2022-12-03T20:04:46.438Z,34.23
2022-12-03T20:06:49.143Z,31.77
2022-12-03T20:08:55.773Z,31.40
2022-12-03T20:11:12.579Z,29.87
2022-12-03T20:13:15.502Z,31.27
2022-12-03T20:15:18.295Z,30.20
2022-12-03T20:17:22.305Z,30.90
2022-12-03T20:19:25.274Z,26.77
2022-12-03T20:21:29.996Z,29.90
2022-12-03T20:23:33.024Z,33.77
2022-12-03T20:25:37.525Z,33.27
2022-12-03T20:27:40.497Z,29.17
2022-12-03T20:29:43.499Z,25.67
2022-12-03T20:31:46.525Z,28.23
2022-12-03T20:33:53.997Z,25.77
2022-12-03T20:35:58.027Z,27.73
2022-12-03T20:38:00.733Z,26.67
2022-12-03T20:40:04.167Z,29.13
2022-12-03T20:42:07.142Z,28.20
2022-12-03T20:44:10.138Z,27.97
2022-12-03T20:46:15.798Z,27.80
2022-12-03T20:48:18.709Z,29.00
2022-12-03T20:50:22.913Z,26.50
2022-12-03T20:52:25.857Z,25.50
2022-12-03T20:54:28.883Z,27.47
2022-12-03T20:56:33.741Z,29.47
2022-12-03T20:58:37.718Z,26.10
2022-12-03T21:00:40.584Z,25.80
2022-12-03T21:02:43.561Z,25.70
2022-12-03T21:04:46.514Z,26.30
2022-12-03T21:06:50.707Z,26.93
2022-12-03T21:08:54.657Z,24.70
2022-12-03T21:10:57.603Z,26.17
2022-12-03T21:13:00.788Z,26.03
2022-12-03T21:15:03.508Z,24.80
2022-12-03T21:17:09.165Z,27.27
2022-12-03T21:19:12.470Z,25.73
2022-12-03T21:21:16.901Z,25.53
2022-12-03T21:23:21.073Z,24.97
2022-12-03T21:25:23.868Z,25.47
2022-12-03T21:27:26.965Z,24.70
2022-12-03T21:29:29.794Z,23.17
2022-12-03T21:31:32.671Z,24.53
2022-12-03T21:33:48.480Z,24.77
2022-12-03T21:35:51.427Z,26.27
2022-12-03T21:37:54.695Z,21.07
2022-12-03T21:39:58.973Z,23.43
2022-12-03T21:42:34.453Z,24.20
2022-12-03T21:44:24.465Z,23.57
2022-12-03T21:47:10.049Z,23.63
2022-12-03T21:48:50.620Z,27.03
2022-12-03T21:51:00.452Z,23.53
2022-12-03T21:53:03.394Z,28.37
2022-12-03T21:55:08.048Z,24.07
2022-12-03T21:57:10.995Z,22.97
2022-12-03T21:59:13.722Z,23.03
2022-12-03T22:01:19.141Z,25.43
2022-12-03T22:03:22.014Z,25.67
2022-12-03T22:05:24.893Z,23.90
2022-12-03T22:07:27.820Z,24.07
2022-12-03T22:09:31.839Z,24.73
2022-12-03T22:11:35.876Z,26.37
2022-12-03T22:13:39.484Z,23.77
2022-12-03T22:15:42.348Z,25.67
2022-12-03T22:17:45.097Z,26.40
2022-12-03T22:19:47.850Z,26.87
2022-12-03T22:21:50.810Z,26.70
2022-12-03T22:23:53.574Z,25.50
2022-12-03T22:26:00.872Z,25.97
2022-12-03T22:28:05.183Z,27.87
2022-12-03T22:30:08.913Z,29.57
2022-12-03T22:32:11.963Z,31.23
2022-12-03T22:34:14.921Z,26.10
2022-12-03T22:36:21.419Z,29.00
2022-12-03T22:38:25.585Z,26.87
2022-12-03T22:40:28.442Z,25.23
2022-12-03T22:42:31.548Z,27.17
2022-12-03T22:44:35.656Z,26.03
2022-12-03T22:46:38.716Z,27.23
2022-12-03T22:48:42.250Z,25.70
2022-12-03T22:50:45.981Z,26.77
2022-12-03T22:52:48.716Z,26.90
2022-12-03T22:54:51.582Z,26.80
2022-12-03T22:56:54.397Z,28.83
2022-12-03T22:58:57.321Z,27.40
2022-12-03T23:01:03.197Z,24.97
2022-12-03T23:03:06.764Z,26.57
2022-12-03T23:05:10.337Z,25.20
2022-12-03T23:07:15.745Z,28.03
2022-12-03T23:09:18.492Z,27.20
2022-12-03T23:11:21.255Z,25.27
2022-12-03T23:13:24.003Z,24.97
2022-12-03T23:15:26.779Z,26.57
2022-12-03T23:17:31.044Z,29.63
2022-12-03T23:19:34.781Z,24.50
2022-12-03T23:21:37.777Z,21.43
2022-12-03T23:23:40.773Z,22.77
2022-12-03T23:25:44.410Z,24.23
2022-12-03T23:27:48.331Z,25.23
2022-12-03T23:29:51.063Z,23.10
2022-12-03T23:31:53.812Z,25.27
2022-12-03T23:33:59.027Z,22.37
2022-12-03T23:36:05.873Z,22.00
2022-12-03T23:38:08.817Z,23.20
2022-12-03T23:40:13.258Z,22.77
2022-12-03T23:42:16.236Z,24.43
2022-12-03T23:44:18.957Z,22.13
2022-12-03T23:46:23.759Z,26.80
2022-12-03T23:48:26.599Z,21.83
2022-12-03T23:50:31.335Z,25.13
2022-12-03T23:52:36.659Z,22.73
2022-12-03T23:54:39.755Z,21.23
2022-12-03T23:56:42.630Z,23.33
2022-12-03T23:58:46.413Z,22.87
